Time;durP1;ratioP1;P1;durP2;ratioP2;P2;SDS_P1;SDS_P2;PMS_P1;PMS_P2;Temp;Humidity;BMP_temperature;BMP_pressure;BME280_temperature;BME280_humidity;BME280_pressure;Samples;Min_cycle;Max_cycle;Signal;HPM_P1;HPM_P2
2021/09/18 00:02:05;;;;;;;4.30;3.77;;;16.20;99.90;;;;;;5028811;28;20235;-70
2021/09/18 00:04:31;;;;;;;4.40;4.00;;;16.20;99.90;;;;;;5008800;28;20716;-71
2021/09/18 00:06:56;;;;;;;4.67;4.17;;;16.10;99.90;;;;;;4994120;28;20233;-71
2021/09/18 00:09:22;;;;;;;5.63;4.40;;;16.00;99.90;;;;;;5012253;28;20248;-71
2021/09/18 00:11:48;;;;;;;4.73;4.27;;;16.00;99.90;;;;;;5007143;28;20260;-71
2021/09/18 00:14:13;;;;;;;4.30;3.80;;;15.90;99.90;;;;;;5026669;28;20212;-71
2021/09/18 00:16:39;;;;;;;4.43;4.13;;;15.80;99.90;;;;;;5028447;28;20235;-71
2021/09/18 00:19:05;;;;;;;4.40;4.00;;;15.70;99.90;;;;;;5045592;28;20307;-71
2021/09/18 00:21:30;;;;;;;4.47;4.07;;;15.70;99.90;;;;;;5013688;28;20230;-69
2021/09/18 00:23:56;;;;;;;5.33;3.97;;;15.70;99.90;;;;;;5028152;28;20232;-71
2021/09/18 00:26:22;;;;;;;4.80;3.90;;;15.70;99.90;;;;;;4997438;28;20336;-72
2021/09/18 00:28:47;;;;;;;5.57;3.70;;;15.80;99.90;;;;;;5005127;28;20227;-71
2021/09/18 00:31:13;;;;;;;4.53;4.13;;;15.80;99.90;;;;;;4991943;28;20299;-71
2021/09/18 00:33:39;;;;;;;4.20;3.80;;;15.80;99.90;;;;;;5001139;28;20233;-71
2021/09/18 00:36:04;;;;;;;5.60;4.03;;;15.70;99.90;;;;;;5007411;28;20228;-71
2021/09/18 00:38:30;;;;;;;3.83;3.50;;;15.80;99.90;;;;;;4996265;28;20670;-71
2021/09/18 00:40:57;;;;;;;3.80;3.50;;;15.80;99.90;;;;;;5005953;28;20217;-70
2021/09/18 00:43:22;;;;;;;4.13;3.77;;;15.70;99.90;;;;;;5002800;28;20216;-72
2021/09/18 00:45:48;;;;;;;3.93;3.53;;;15.60;99.90;;;;;;5027580;28;20513;-71
2021/09/18 00:48:14;;;;;;;4.40;4.00;;;15.60;99.90;;;;;;5028805;28;20225;-70
2021/09/18 00:50:42;;;;;;;4.27;3.73;;;15.60;99.90;;;;;;5007827;28;20279;-71
2021/09/18 00:53:09;;;;;;;5.80;3.97;;;15.60;99.90;;;;;;5026100;28;20228;-71
2021/09/18 00:55:35;;;;;;;3.77;3.47;;;15.60;99.90;;;;;;5011910;28;21029;-69
2021/09/18 00:58:01;;;;;;;4.30;3.53;;;15.60;99.90;;;;;;5011817;28;20466;-71
2021/09/18 01:00:27;;;;;;;4.13;3.53;;;15.50;99.90;;;;;;5010118;28;20447;-71
2021/09/18 01:02:52;;;;;;;3.70;3.30;;;15.50;99.90;;;;;;5028075;28;20579;-71
2021/09/18 01:05:19;;;;;;;5.03;4.47;;;15.40;99.90;;;;;;5028666;28;20216;-71
2021/09/18 01:07:44;;;;;;;4.27;3.60;;;15.40;99.90;;;;;;5009065;28;20252;-71
2021/09/18 01:10:11;;;;;;;4.53;4.13;;;15.40;99.90;;;;;;5018283;28;20480;-70
2021/09/18 01:13:02;;;;;;;4.63;3.97;;;15.40;99.90;;;;;;5025980;28;20232;-70
2021/09/18 01:15:29;;;;;;;4.80;3.90;;;15.40;99.90;;;;;;5025072;28;20448;-71
2021/09/18 01:17:56;;;;;;;4.13;3.53;;;15.40;99.90;;;;;;5014730;28;20480;-71
2021/09/18 01:20:22;;;;;;;4.57;4.17;;;15.40;99.90;;;;;;5011776;28;20526;-71
2021/09/18 01:22:48;;;;;;;4.13;3.80;;;15.50;99.90;;;;;;5029854;28;20726;-71
2021/09/18 01:25:14;;;;;;;4.63;4.20;;;15.50;99.90;;;;;;5029505;28;20473;-71
2021/09/18 01:27:43;;;;;;;4.03;3.60;;;15.50;99.90;;;;;;5023271;28;20268;-71
2021/09/18 01:30:09;;;;;;;4.50;4.03;;;15.50;99.90;;;;;;5026158;28;20463;-71
2021/09/18 01:32:35;;;;;;;5.03;4.03;;;15.50;99.90;;;;;;5012038;28;20559;-71
2021/09/18 01:35:00;;;;;;;4.50;4.10;;;15.50;99.90;;;;;;5028725;28;20639;-72
2021/09/18 01:37:27;;;;;;;4.90;4.37;;;15.50;99.90;;;;;;5006236;28;20212;-71
2021/09/18 01:39:52;;;;;;;4.27;3.87;;;15.50;99.90;;;;;;5032956;28;20224;-71
2021/09/18 01:42:18;;;;;;;4.83;4.30;;;15.50;99.90;;;;;;5031115;28;20504;-71
2021/09/18 01:44:44;;;;;;;4.03;3.40;;;15.40;99.90;;;;;;5019059;28;20216;-71
2021/09/18 01:47:09;;;;;;;4.93;4.40;;;15.40;99.90;;;;;;5023262;28;20220;-71
2021/09/18 01:49:36;;;;;;;4.60;4.20;;;15.40;99.90;;;;;;5028680;28;20217;-71
2021/09/18 01:52:07;;;;;;;5.70;4.80;;;15.40;99.90;;;;;;5016281;28;20228;-71
2021/09/18 01:54:34;;;;;;;4.97;3.90;;;15.40;99.90;;;;;;5012245;28;20686;-70
2021/09/18 01:57:06;;;;;;;4.60;4.20;;;15.40;99.90;;;;;;4992185;28;20461;-71
2021/09/18 01:59:32;;;;;;;4.60;4.10;;;15.40;99.90;;;;;;5012470;28;21002;-71
2021/09/18 02:01:58;;;;;;;4.47;4.07;;;15.30;99.90;;;;;;5002535;28;20467;-71
2021/09/18 02:04:23;;;;;;;5.23;4.10;;;15.30;99.90;;;;;;5014452;28;20779;-71
2021/09/18 02:06:49;;;;;;;4.17;3.80;;;15.30;99.90;;;;;;4998194;28;20249;-71
2021/09/18 02:09:15;;;;;;;3.07;2.87;;;15.30;99.90;;;;;;5012416;28;20232;-71
2021/09/18 02:11:40;;;;;;;6.50;3.93;;;15.30;99.90;;;;;;5011096;28;20243;-71
2021/09/18 02:14:06;;;;;;;5.30;3.37;;;15.20;99.90;;;;;;5022259;28;20233;-71
2021/09/18 02:16:31;;;;;;;4.20;3.80;;;15.20;99.90;;;;;;5027977;28;20221;-72
2021/09/18 02:18:57;;;;;;;5.80;3.90;;;15.20;99.90;;;;;;5027585;28;20243;-71
2021/09/18 02:21:23;;;;;;;7.77;3.50;;;15.10;99.90;;;;;;4998195;28;20243;-70
2021/09/18 02:23:48;;;;;;;3.53;3.23;;;15.00;99.90;;;;;;5048486;28;20224;-71
2021/09/18 02:26:14;;;;;;;4.37;3.50;;;15.00;99.90;;;;;;5030884;28;20309;-72
2021/09/18 02:28:40;;;;;;;4.17;3.73;;;15.00;99.90;;;;;;5018916;28;20252;-70
2021/09/18 02:31:05;;;;;;;5.30;3.77;;;15.00;99.90;;;;;;5014694;28;20221;-71
2021/09/18 02:33:31;;;;;;;4.10;3.63;;;15.00;99.90;;;;;;4996110;28;20221;-68
2021/09/18 02:35:59;;;;;;;3.77;3.37;;;15.00;99.90;;;;;;5003886;28;20236;-71
2021/09/18 02:38:25;;;;;;;6.57;4.30;;;15.00;99.90;;;;;;5010708;28;20225;-71
2021/09/18 02:40:53;;;;;;;4.40;3.20;;;15.00;99.90;;;;;;5007213;28;20471;-71
2021/09/18 02:43:20;;;;;;;4.20;3.80;;;15.00;99.90;;;;;;4994318;28;20657;-71
2021/09/18 02:45:45;;;;;;;3.50;3.20;;;15.00;99.90;;;;;;5025963;28;20488;-71
2021/09/18 02:48:11;;;;;;;4.07;3.67;;;15.00;99.90;;;;;;5039613;28;20531;-71
2021/09/18 02:50:37;;;;;;;3.87;3.53;;;14.90;99.90;;;;;;4993267;28;20603;-71
2021/09/18 02:53:03;;;;;;;3.20;2.90;;;14.90;99.90;;;;;;5030393;28;20232;-71
2021/09/18 02:55:29;;;;;;;3.77;3.17;;;14.90;99.90;;;;;;5039284;28;20688;-71
2021/09/18 02:57:55;;;;;;;6.97;3.67;;;14.90;99.90;;;;;;5030887;28;20542;-71
2021/09/18 03:00:21;;;;;;;4.03;3.60;;;14.90;99.90;;;;;;5011224;28;20587;-71
2021/09/18 03:02:47;;;;;;;4.57;4.17;;;14.90;99.90;;;;;;4994885;28;20311;-71
2021/09/18 03:05:13;;;;;;;4.00;3.70;;;14.90;99.90;;;;;;4993695;28;20232;-72
2021/09/18 03:07:39;;;;;;;4.10;3.73;;;14.90;99.90;;;;;;5011925;28;20268;-69
2021/09/18 03:10:07;;;;;;;4.00;3.60;;;14.80;99.90;;;;;;5010480;28;21006;-71
2021/09/18 03:12:33;;;;;;;3.70;3.40;;;14.80;99.90;;;;;;4998004;28;20510;-71
2021/09/18 03:14:59;;;;;;;3.83;3.43;;;14.80;99.90;;;;;;5002577;28;20456;-71
2021/09/18 03:17:24;;;;;;;4.10;3.70;;;14.80;99.90;;;;;;4991614;28;20813;-71
2021/09/18 03:19:51;;;;;;;3.90;3.50;;;14.80;99.90;;;;;;4996504;28;20255;-71
2021/09/18 03:22:18;;;;;;;4.37;3.70;;;14.80;99.90;;;;;;5005875;28;20225;-71
2021/09/18 03:24:43;;;;;;;4.07;3.27;;;14.80;99.90;;;;;;4984031;28;20472;-71
2021/09/18 03:27:09;;;;;;;3.90;3.50;;;14.70;99.90;;;;;;5006972;28;20481;-70
2021/09/18 03:29:35;;;;;;;3.70;3.40;;;14.70;99.90;;;;;;4992905;28;20303;-71
2021/09/18 03:32:01;;;;;;;3.63;3.20;;;14.60;99.90;;;;;;5005051;28;20222;-71
2021/09/18 03:34:26;;;;;;;4.37;3.47;;;14.60;99.90;;;;;;5012538;28;20709;-71
2021/09/18 03:36:52;;;;;;;5.10;4.00;;;14.50;99.90;;;;;;5020844;28;20460;-72
2021/09/18 03:39:18;;;;;;;4.00;3.60;;;14.50;99.90;;;;;;5009384;28;20251;-71
2021/09/18 03:41:43;;;;;;;3.60;3.30;;;14.50;99.90;;;;;;5020466;28;20283;-70
2021/09/18 03:44:09;;;;;;;3.60;3.30;;;14.60;99.90;;;;;;5029177;28;20241;-71
2021/09/18 03:46:35;;;;;;;9.17;3.07;;;14.50;99.90;;;;;;5012145;28;20228;-71
2021/09/18 03:49:00;;;;;;;4.03;3.70;;;14.50;99.90;;;;;;5007521;28;20221;-71
2021/09/18 03:51:26;;;;;;;4.30;3.90;;;14.50;99.90;;;;;;5008225;28;20241;-71
2021/09/18 03:53:52;;;;;;;5.80;3.70;;;14.50;99.90;;;;;;5007152;28;20236;-71
2021/09/18 03:56:17;;;;;;;4.33;3.90;;;14.50;99.90;;;;;;5009033;28;20464;-71
2021/09/18 03:58:43;;;;;;;6.37;4.27;;;14.50;99.90;;;;;;5014716;28;20224;-71
2021/09/18 04:01:09;;;;;;;3.90;3.60;;;14.40;99.90;;;;;;5010411;28;20231;-71
2021/09/18 04:03:34;;;;;;;5.10;3.80;;;14.30;99.90;;;;;;5011516;28;20236;-72
2021/09/18 04:06:00;;;;;;;4.03;3.67;;;14.40;99.90;;;;;;5045677;28;20221;-71
2021/09/18 04:08:26;;;;;;;4.63;4.23;;;14.30;99.90;;;;;;5027812;28;20587;-70
2021/09/18 04:10:51;;;;;;;5.13;4.30;;;14.30;99.90;;;;;;5020227;28;20358;-71
2021/09/18 04:13:17;;;;;;;5.20;4.70;;;14.40;99.90;;;;;;5018612;28;20273;-71
2021/09/18 04:15:43;;;;;;;6.33;4.47;;;14.30;99.90;;;;;;5006268;28;20224;-71
2021/09/18 04:18:08;;;;;;;6.07;4.80;;;14.30;99.90;;;;;;5043479;28;20235;-71
2021/09/18 04:20:34;;;;;;;5.10;4.37;;;14.30;99.90;;;;;;5011665;28;20220;-71
2021/09/18 04:23:00;;;;;;;5.43;4.90;;;14.30;99.90;;;;;;5026889;28;20236;-72
2021/09/18 04:25:25;;;;;;;6.03;5.20;;;14.30;99.90;;;;;;5027186;28;20603;-71
2021/09/18 04:27:51;;;;;;;5.90;4.80;;;14.30;99.90;;;;;;5028676;28;20220;-71
2021/09/18 04:30:17;;;;;;;6.20;4.40;;;14.30;99.90;;;;;;5043612;28;20243;-71
2021/09/18 04:32:43;;;;;;;5.57;4.97;;;14.20;99.90;;;;;;5026691;28;20560;-71
2021/09/18 04:35:09;;;;;;;6.13;4.37;;;14.20;99.90;;;;;;5023300;28;20394;-71
2021/09/18 04:37:34;;;;;;;5.20;4.53;;;14.20;99.90;;;;;;5023283;28;20637;-71
2021/09/18 04:40:00;;;;;;;4.43;4.00;;;14.20;99.90;;;;;;5011428;28;20459;-72
2021/09/18 04:42:26;;;;;;;6.60;4.43;;;14.20;99.90;;;;;;5026198;28;20231;-71
2021/09/18 04:44:52;;;;;;;7.57;5.33;;;14.20;99.90;;;;;;5027462;28;20232;-71
2021/09/18 04:47:17;;;;;;;5.47;4.37;;;14.20;99.90;;;;;;5027025;28;20236;-71
2021/09/18 04:49:43;;;;;;;6.90;4.47;;;14.20;99.90;;;;;;5021860;28;20231;-71
2021/09/18 04:52:09;;;;;;;4.50;4.10;;;14.20;99.90;;;;;;5025845;28;20312;-71
2021/09/18 04:54:34;;;;;;;4.87;4.37;;;14.20;99.90;;;;;;5015448;28;20225;-71
2021/09/18 04:57:00;;;;;;;6.27;5.67;;;14.20;99.90;;;;;;5008119;28;20223;-71
2021/09/18 04:59:26;;;;;;;4.50;4.10;;;14.20;99.90;;;;;;5027656;28;20235;-71
2021/09/18 05:01:51;;;;;;;4.63;4.20;;;14.20;99.90;;;;;;5027888;28;20224;-71
2021/09/18 05:04:17;;;;;;;5.57;5.03;;;14.20;99.90;;;;;;5005749;28;20231;-71
2021/09/18 05:06:42;;;;;;;4.10;3.73;;;14.10;99.90;;;;;;5017646;28;20273;-71
2021/09/18 05:09:08;;;;;;;4.20;3.80;;;14.10;99.90;;;;;;5028120;28;20220;-70
2021/09/18 05:11:34;;;;;;;5.10;4.60;;;14.10;99.90;;;;;;5025157;28;20247;-70
2021/09/18 05:14:00;;;;;;;4.70;4.20;;;14.00;99.90;;;;;;5010167;28;20610;-71
2021/09/18 05:16:25;;;;;;;5.60;4.60;;;14.00;99.90;;;;;;5014398;28;20225;-71
2021/09/18 05:18:51;;;;;;;4.37;3.97;;;14.00;99.90;;;;;;5008283;28;20228;-71
2021/09/18 05:21:17;;;;;;;4.13;3.80;;;14.00;99.90;;;;;;5023621;28;20232;-70
2021/09/18 05:23:42;;;;;;;4.30;3.30;;;14.00;99.90;;;;;;5026758;28;20221;-71
2021/09/18 05:26:09;;;;;;;6.70;4.27;;;14.00;99.90;;;;;;5044383;28;20253;-71
2021/09/18 05:28:34;;;;;;;5.13;4.50;;;14.00;99.90;;;;;;5014623;28;20225;-71
2021/09/18 05:31:00;;;;;;;5.20;4.10;;;14.00;99.90;;;;;;5006593;28;20475;-71
2021/09/18 05:33:26;;;;;;;5.50;4.20;;;14.00;99.90;;;;;;5003869;28;20233;-71
2021/09/18 05:35:51;;;;;;;5.40;4.80;;;14.00;99.90;;;;;;5007789;28;20221;-71
2021/09/18 05:38:17;;;;;;;5.40;4.90;;;14.00;99.90;;;;;;4999778;28;20721;-71
2021/09/18 05:40:43;;;;;;;4.97;4.47;;;14.00;99.90;;;;;;5007585;28;20228;-70
2021/09/18 05:43:08;;;;;;;4.57;4.17;;;13.90;99.90;;;;;;5012010;28;20221;-71
2021/09/18 05:45:34;;;;;;;6.90;4.20;;;13.90;99.90;;;;;;5026446;28;20216;-71
2021/09/18 05:48:03;;;;;;;5.27;4.57;;;13.90;99.90;;;;;;5027844;28;20224;-70
2021/09/18 05:50:29;;;;;;;4.83;3.87;;;13.90;99.90;;;;;;5010024;28;20227;-71
2021/09/18 05:52:54;;;;;;;4.43;4.03;;;13.90;99.90;;;;;;5002745;28;20468;-71
2021/09/18 05:55:20;;;;;;;4.90;4.47;;;13.90;99.90;;;;;;5027811;28;20255;-71
2021/09/18 05:57:45;;;;;;;6.70;3.93;;;13.90;99.90;;;;;;5031394;28;20743;-71
2021/09/18 06:00:12;;;;;;;4.30;3.90;;;13.90;99.90;;;;;;5026190;28;20231;-71
2021/09/18 06:02:41;;;;;;;4.20;3.80;;;13.80;99.90;;;;;;5014100;28;20225;-71
2021/09/18 06:05:11;;;;;;;4.40;4.00;;;13.90;99.90;;;;;;4979253;28;20489;-70
2021/09/18 06:07:36;;;;;;;4.93;4.43;;;13.90;99.90;;;;;;4989898;28;20506;-71
2021/09/18 06:10:04;;;;;;;5.80;4.03;;;13.90;99.90;;;;;;5016078;28;20451;-70
2021/09/18 06:12:30;;;;;;;4.93;4.10;;;13.90;99.90;;;;;;5025262;28;20579;-71
2021/09/18 06:14:56;;;;;;;5.13;4.37;;;13.90;99.90;;;;;;5017565;28;20470;-71
2021/09/18 06:17:21;;;;;;;5.13;3.97;;;13.90;99.90;;;;;;5019424;28;20229;-71
2021/09/18 06:19:47;;;;;;;5.20;4.70;;;13.90;99.90;;;;;;5014847;28;21011;-71
2021/09/18 06:22:13;;;;;;;4.00;3.53;;;13.90;99.90;;;;;;5004035;28;20220;-70
2021/09/18 06:24:43;;;;;;;5.80;4.80;;;13.90;99.90;;;;;;4989288;28;20247;-70
2021/09/18 06:27:09;;;;;;;4.80;4.03;;;13.90;99.90;;;;;;5009175;28;20237;-72
2021/09/18 06:29:35;;;;;;;4.60;4.20;;;14.00;99.90;;;;;;5008032;28;20469;-71
2021/09/18 06:32:06;;;;;;;4.83;4.33;;;13.90;99.90;;;;;;4999573;28;20224;-71
2021/09/18 06:34:31;;;;;;;5.10;4.03;;;14.00;99.90;;;;;;5003260;28;20457;-71
2021/09/18 06:36:57;;;;;;;4.50;3.90;;;14.00;99.90;;;;;;5002632;28;20470;-71
2021/09/18 06:39:22;;;;;;;5.80;3.90;;;14.00;99.90;;;;;;5000153;28;20229;-71
2021/09/18 06:41:48;;;;;;;4.77;3.93;;;14.00;99.90;;;;;;5008439;28;20251;-72
2021/09/18 06:44:14;;;;;;;5.97;3.63;;;14.00;99.90;;;;;;5012432;28;20217;-71
2021/09/18 06:46:39;;;;;;;4.10;3.70;;;14.00;99.90;;;;;;5006141;28;20255;-71
2021/09/18 06:49:05;;;;;;;4.40;4.00;;;14.00;99.90;;;;;;4996324;28;20230;-71
2021/09/18 06:51:31;;;;;;;3.90;3.60;;;14.00;99.90;;;;;;5019144;28;20229;-70
2021/09/18 06:53:56;;;;;;;5.50;3.97;;;14.00;99.90;;;;;;4997284;28;20685;-70
2021/09/18 06:56:22;;;;;;;6.43;4.63;;;14.10;99.90;;;;;;5013307;28;20222;-71
2021/09/18 06:58:48;;;;;;;4.90;4.40;;;14.10;99.90;;;;;;5048191;28;20223;-70
2021/09/18 07:01:13;;;;;;;5.40;4.30;;;14.20;99.90;;;;;;5011850;28;20227;-71
2021/09/18 07:03:39;;;;;;;7.00;5.07;;;14.20;99.90;;;;;;5032262;28;20298;-71
2021/09/18 07:06:05;;;;;;;5.37;4.77;;;14.30;99.90;;;;;;5031662;28;20228;-71
2021/09/18 07:08:30;;;;;;;12.03;3.80;;;14.30;99.90;;;;;;5030930;28;20220;-71
2021/09/18 07:10:56;;;;;;;5.03;4.47;;;14.40;99.90;;;;;;5006801;28;20235;-70
2021/09/18 07:13:22;;;;;;;5.60;4.90;;;14.40;99.90;;;;;;5027342;28;20235;-70
2021/09/18 07:15:48;;;;;;;5.83;4.97;;;14.50;99.90;;;;;;4997947;28;20972;-70
2021/09/18 07:18:14;;;;;;;5.27;4.40;;;14.50;99.90;;;;;;5012487;28;20220;-70
2021/09/18 07:20:39;;;;;;;8.30;5.50;;;14.50;99.90;;;;;;5031431;28;20307;-72
2021/09/18 07:23:05;;;;;;;4.43;4.00;;;14.60;99.90;;;;;;5029997;28;20351;-70
2021/09/18 07:25:31;;;;;;;5.03;4.50;;;14.70;99.90;;;;;;5010696;28;20225;-71
2021/09/18 07:27:56;;;;;;;5.63;5.03;;;14.70;99.90;;;;;;5003219;28;20233;-71
2021/09/18 07:30:22;;;;;;;5.93;4.87;;;14.80;99.90;;;;;;5010647;28;20228;-71
2021/09/18 07:32:48;;;;;;;4.20;3.80;;;14.80;99.90;;;;;;5010174;28;20319;-71
2021/09/18 07:35:13;;;;;;;5.40;4.23;;;14.80;99.90;;;;;;4992440;28;20225;-71
2021/09/18 07:37:39;;;;;;;5.10;4.63;;;14.80;99.90;;;;;;5006965;28;20298;-69
2021/09/18 07:40:07;;;;;;;5.57;5.07;;;14.90;99.90;;;;;;5026085;28;20266;-71
2021/09/18 07:42:33;;;;;;;5.10;4.20;;;14.90;99.90;;;;;;5027318;28;20463;-71
2021/09/18 07:44:59;;;;;;;6.00;4.80;;;15.00;99.90;;;;;;5008964;28;20561;-71
2021/09/18 07:47:24;;;;;;;6.17;4.70;;;15.00;99.90;;;;;;5008595;28;20312;-71
2021/09/18 07:49:50;;;;;;;5.93;4.70;;;15.00;99.90;;;;;;5010443;28;20309;-71
2021/09/18 07:52:16;;;;;;;6.00;4.50;;;15.10;99.90;;;;;;5006718;28;20305;-71
2021/09/18 07:54:43;;;;;;;5.20;4.63;;;15.20;99.90;;;;;;5007415;28;20228;-71
2021/09/18 07:57:12;;;;;;;4.97;4.20;;;15.30;99.90;;;;;;4989252;28;20989;-71
2021/09/18 07:59:37;;;;;;;8.40;4.70;;;15.40;99.90;;;;;;4992886;28;20460;-72
2021/09/18 08:02:03;;;;;;;6.20;4.80;;;15.40;99.90;;;;;;4999034;28;20544;-71
2021/09/18 08:04:29;;;;;;;6.37;5.00;;;15.50;99.90;;;;;;4988513;28;20237;-71
2021/09/18 08:06:54;;;;;;;6.90;5.70;;;15.50;99.90;;;;;;4982651;28;20221;-70
2021/09/18 08:09:20;;;;;;;7.43;5.33;;;15.60;99.90;;;;;;4999256;28;20252;-72
2021/09/18 08:11:46;;;;;;;7.00;5.53;;;15.70;99.90;;;;;;5007632;28;20614;-70
2021/09/18 08:14:11;;;;;;;6.97;6.27;;;15.80;99.90;;;;;;5016609;28;20232;-71
2021/09/18 08:16:37;;;;;;;6.37;5.60;;;15.90;99.90;;;;;;5017322;28;20225;-70
2021/09/18 08:19:03;;;;;;;7.77;6.07;;;16.00;99.90;;;;;;5026107;28;20727;-71
2021/09/18 08:21:29;;;;;;;6.53;5.67;;;16.00;99.90;;;;;;5009630;28;20707;-71
2021/09/18 08:23:54;;;;;;;5.97;5.23;;;16.00;99.90;;;;;;5039355;28;20311;-71
2021/09/18 08:26:27;;;;;;;7.83;5.63;;;16.10;99.90;;;;;;5025703;28;20228;-71
2021/09/18 08:28:53;;;;;;;6.10;5.50;;;16.10;99.90;;;;;;5010520;28;20213;-71
2021/09/18 08:31:18;;;;;;;9.50;6.40;;;16.20;99.90;;;;;;5026768;28;20460;-71
2021/09/18 08:33:44;;;;;;;9.80;7.10;;;16.30;99.90;;;;;;5028594;28;20271;-71
2021/09/18 08:36:11;;;;;;;10.50;8.37;;;16.50;99.90;;;;;;5025493;28;20327;-70
2021/09/18 08:38:36;;;;;;;14.10;8.63;;;16.50;99.90;;;;;;5015768;28;20883;-71
2021/09/18 08:41:02;;;;;;;11.77;8.27;;;16.60;99.90;;;;;;5030390;28;20216;-71
2021/09/18 08:43:28;;;;;;;9.77;7.73;;;16.70;99.90;;;;;;5044842;28;20219;-70
2021/09/18 08:45:53;;;;;;;11.00;8.20;;;16.80;99.90;;;;;;5029313;28;20216;-71
2021/09/18 08:48:21;;;;;;;11.57;7.60;;;16.90;99.90;;;;;;5006353;28;20247;-72
2021/09/18 08:50:49;;;;;;;12.57;8.17;;;17.00;99.90;;;;;;5008840;28;20273;-72
2021/09/18 08:53:15;;;;;;;13.83;8.90;;;17.10;99.90;;;;;;5046195;28;20490;-72
2021/09/18 08:55:40;;;;;;;11.10;9.07;;;17.30;99.90;;;;;;5035281;28;20458;-70
2021/09/18 08:58:06;;;;;;;8.90;7.97;;;17.40;99.90;;;;;;5034560;28;20258;-71
2021/09/18 09:00:32;;;;;;;11.07;7.90;;;17.50;99.90;;;;;;5025457;28;20223;-71
2021/09/18 09:03:07;;;;;;;10.60;8.60;;;17.60;99.90;;;;;;5020284;28;20246;-71
2021/09/18 09:05:35;;;;;;;13.10;8.60;;;17.70;99.90;;;;;;5035681;28;20352;-71
2021/09/18 09:08:04;;;;;;;10.57;8.23;;;17.70;99.90;;;;;;4990633;28;20455;-72
2021/09/18 09:10:30;;;;;;;9.47;8.03;;;17.90;99.90;;;;;;5032848;28;20447;-71
2021/09/18 09:13:07;;;;;;;12.57;8.97;;;18.00;99.90;;;;;;5030860;28;20466;-71
2021/09/18 09:15:34;;;;;;;14.30;9.47;;;18.10;99.90;;;;;;5019106;28;20228;-72
2021/09/18 09:18:18;;;;;;;9.57;8.57;;;18.20;99.90;;;;;;5004429;28;20492;-71
2021/09/18 09:20:45;;;;;;;9.30;8.30;;;18.40;99.90;;;;;;5009842;28;20466;-69
2021/09/18 09:23:22;;;;;;;12.30;8.63;;;18.40;99.90;;;;;;5023372;28;20470;-71
2021/09/18 09:25:54;;;;;;;11.97;8.70;;;18.50;99.90;;;;;;5023106;28;20604;-71
2021/09/18 09:28:40;;;;;;;14.23;9.50;;;18.60;99.90;;;;;;5023549;28;20478;-72
2021/09/18 09:31:16;;;;;;;17.30;10.40;;;18.70;99.90;;;;;;5019125;28;20464;-71
2021/09/18 09:34:14;;;;;;;11.60;8.97;;;18.90;99.90;;;;;;5045867;28;20472;-72
2021/09/18 09:36:46;;;;;;;10.80;8.50;;;18.90;99.90;;;;;;5063114;28;20463;-71
2021/09/18 09:39:15;;;;;;;12.13;9.13;;;19.00;99.90;;;;;;5030628;28;20529;-71
2021/09/18 09:41:43;;;;;;;11.77;8.87;;;19.00;99.90;;;;;;5039297;28;20509;-71
2021/09/18 09:44:15;;;;;;;12.03;10.33;;;19.10;99.90;;;;;;5035462;28;20459;-72
2021/09/18 09:46:41;;;;;;;14.20;9.67;;;19.30;99.90;;;;;;5013276;28;20873;-70
2021/09/18 09:49:50;;;;;;;15.37;11.40;;;19.40;99.90;;;;;;5064519;28;20545;-71
2021/09/18 09:52:31;;;;;;;13.27;10.50;;;19.60;99.90;;;;;;5055065;28;20225;-72
2021/09/18 09:55:06;;;;;;;18.30;12.83;;;19.90;99.90;;;;;;5050710;28;20461;-71
2021/09/18 09:57:32;;;;;;;14.67;11.57;;;20.00;99.90;;;;;;5043890;28;20527;-71
2021/09/18 09:59:59;;;;;;;23.20;15.07;;;20.00;99.90;;;;;;5041509;28;20453;-71
2021/09/18 10:02:25;;;;;;;19.30;14.13;;;20.00;99.90;;;;;;5035471;28;20514;-71
2021/09/18 10:04:51;;;;;;;24.80;14.83;;;19.90;99.90;;;;;;5034133;28;20469;-72
2021/09/18 10:07:17;;;;;;;16.03;12.97;;;20.00;99.90;;;;;;5070055;28;20286;-71
2021/09/18 10:09:44;;;;;;;15.77;12.50;;;20.10;99.90;;;;;;5036450;28;20545;-70
2021/09/18 10:12:13;;;;;;;15.67;12.10;;;20.20;99.90;;;;;;5035654;28;20227;-70
2021/09/18 10:14:45;;;;;;;16.10;12.27;;;20.30;99.90;;;;;;5033941;28;20453;-72
2021/09/18 10:17:12;;;;;;;16.97;13.67;;;20.40;99.90;;;;;;5041092;28;20449;-71
2021/09/18 10:24:56;;;;;;;19.33;14.03;;;20.70;99.90;;;;;;5051584;28;20480;-72
2021/09/18 10:27:24;;;;;;;21.30;14.63;;;20.60;99.90;;;;;;5050175;28;21055;-71
2021/09/18 10:29:51;;;;;;;21.83;15.00;;;20.70;99.90;;;;;;5035612;28;20840;-71
2021/09/18 10:32:18;;;;;;;20.53;15.67;;;20.80;99.90;;;;;;5032330;28;20465;-71
2021/09/18 10:34:44;;;;;;;20.50;16.40;;;20.80;99.90;;;;;;5037515;28;20867;-72
2021/09/18 10:37:30;;;;;;;17.03;13.93;;;20.80;99.90;;;;;;5035895;28;21127;-71
2021/09/18 10:40:03;;;;;;;19.47;14.93;;;20.90;99.90;;;;;;5036954;28;20476;-72
2021/09/18 10:42:38;;;;;;;18.83;15.10;;;20.90;99.90;;;;;;5033225;28;20517;-71
2021/09/18 10:45:06;;;;;;;16.47;13.00;;;21.00;99.90;;;;;;5032921;28;20984;-71
2021/09/18 10:47:35;;;;;;;17.27;12.07;;;21.00;99.90;;;;;;5061952;28;20470;-71
2021/09/18 10:50:03;;;;;;;16.80;12.27;;;21.10;99.90;;;;;;5034452;28;20446;-72
2021/09/18 10:52:32;;;;;;;13.53;11.37;;;21.10;99.90;;;;;;5044476;28;20469;-72
2021/09/18 10:55:05;;;;;;;15.60;13.17;;;21.10;99.90;;;;;;5036154;28;20453;-72
2021/09/18 10:57:42;;;;;;;12.27;10.73;;;21.30;99.90;;;;;;5026946;28;20547;-72
2021/09/18 11:00:19;;;;;;;13.27;10.40;;;21.40;99.90;;;;;;5032262;28;20515;-71
2021/09/18 11:02:53;;;;;;;15.30;12.10;;;21.60;99.90;;;;;;5046002;28;20457;-71
2021/09/18 11:05:21;;;;;;;13.47;10.60;;;21.70;99.90;;;;;;5051965;28;20569;-71
2021/09/18 11:07:55;;;;;;;12.73;11.10;;;21.70;99.90;;;;;;5053715;28;20461;-71
2021/09/18 11:10:21;;;;;;;13.77;10.73;;;21.80;99.90;;;;;;5049679;28;20469;-71
2021/09/18 11:13:05;;;;;;;11.60;9.30;;;21.70;99.90;;;;;;5047138;28;20476;-71
2021/09/18 11:15:43;;;;;;;10.73;9.00;;;21.70;99.90;;;;;;5033507;28;20215;-72
2021/09/18 11:18:27;;;;;;;10.47;9.37;;;21.90;99.90;;;;;;5052151;28;20452;-71
2021/09/18 11:21:16;;;;;;;11.13;10.07;;;22.10;99.90;;;;;;5048974;28;20522;-71
2021/09/18 11:23:49;;;;;;;11.20;9.77;;;22.20;99.90;;;;;;5044963;28;21045;-71
2021/09/18 11:26:48;;;;;;;12.10;10.43;;;22.20;99.90;;;;;;5052861;28;20477;-71
2021/09/18 11:29:18;;;;;;;13.03;9.40;;;22.40;99.90;;;;;;4996220;28;20457;-71
2021/09/18 11:31:55;;;;;;;11.10;9.43;;;22.50;99.90;;;;;;5033828;28;20469;-71
2021/09/18 11:34:30;;;;;;;10.70;9.03;;;22.60;99.90;;;;;;5068934;28;20461;-70
2021/09/18 11:36:58;;;;;;;11.40;9.10;;;22.90;99.90;;;;;;5036600;28;21041;-71
2021/09/18 11:39:40;;;;;;;13.90;9.40;;;23.00;99.90;;;;;;5053344;28;20543;-71
2021/09/18 11:42:10;;;;;;;10.57;9.00;;;23.00;99.90;;;;;;5051861;28;20457;-71
2021/09/18 11:44:36;;;;;;;10.03;9.13;;;23.10;99.90;;;;;;5052718;28;20536;-69
2021/09/18 11:47:06;;;;;;;9.20;8.00;;;23.10;99.90;;;;;;5054084;28;20524;-71
2021/09/18 11:49:31;;;;;;;10.20;8.13;;;23.20;99.90;;;;;;5053515;28;20214;-70
2021/09/18 11:52:02;;;;;;;11.37;9.80;;;23.20;99.90;;;;;;5031968;28;20481;-71
2021/09/18 11:54:28;;;;;;;9.67;8.60;;;23.20;99.90;;;;;;5036495;28;20246;-71
2021/09/18 11:56:53;;;;;;;12.13;8.23;;;23.30;99.90;;;;;;5053810;28;20473;-71
2021/09/18 11:59:19;;;;;;;11.47;8.70;;;23.40;99.90;;;;;;5035647;28;20214;-71
2021/09/18 12:01:48;;;;;;;11.40;9.00;;;23.60;99.90;;;;;;5032661;28;20227;-71
2021/09/18 12:04:14;;;;;;;10.13;8.13;;;23.70;99.90;;;;;;5046757;28;20226;-71
2021/09/18 12:06:40;;;;;;;9.90;8.67;;;23.80;99.90;;;;;;5032760;28;20469;-69
2021/09/18 12:09:06;;;;;;;9.03;7.53;;;23.80;99.90;;;;;;5023242;28;20459;-71
2021/09/18 12:11:37;;;;;;;8.53;7.40;;;23.70;99.90;;;;;;5040057;28;20585;-71
2021/09/18 12:14:02;;;;;;;8.60;7.77;;;23.70;99.90;;;;;;5040886;28;20540;-70
2021/09/18 12:16:29;;;;;;;8.67;7.77;;;23.80;99.90;;;;;;5048842;28;20525;-73
2021/09/18 12:18:57;;;;;;;10.30;9.30;;;23.90;99.90;;;;;;5049305;28;20219;-71
2021/09/18 12:21:22;;;;;;;12.30;9.47;;;23.80;99.90;;;;;;5035033;28;20480;-69
2021/09/18 12:23:48;;;;;;;10.50;9.30;;;23.80;99.90;;;;;;5072468;28;20476;-71
2021/09/18 12:26:16;;;;;;;10.03;8.70;;;23.70;99.90;;;;;;5052982;28;20219;-71
2021/09/18 12:28:43;;;;;;;15.17;11.03;;;23.60;99.90;;;;;;5061751;28;20222;-69
2021/09/18 12:31:19;;;;;;;12.73;9.17;;;23.60;99.90;;;;;;5030662;28;20449;-71
2021/09/18 12:33:47;;;;;;;13.23;9.40;;;23.60;99.90;;;;;;5035156;28;20464;-71
2021/09/18 12:36:15;;;;;;;13.43;9.37;;;23.60;99.90;;;;;;5034836;28;20460;-71
2021/09/18 12:38:43;;;;;;;11.10;8.10;;;23.60;99.90;;;;;;5029099;28;20546;-71
2021/09/18 12:41:14;;;;;;;13.23;9.63;;;23.70;99.90;;;;;;5037960;28;20579;-71
2021/09/18 12:43:54;;;;;;;9.50;7.90;;;23.80;99.90;;;;;;5068460;28;20457;-70
2021/09/18 12:46:19;;;;;;;12.70;9.00;;;23.80;99.90;;;;;;5068833;28;20460;-71
2021/09/18 12:48:56;;;;;;;16.33;11.10;;;23.80;99.90;;;;;;5070375;28;20459;-71
2021/09/18 12:51:21;;;;;;;12.47;9.67;;;23.70;99.90;;;;;;5046851;28;20256;-70